Time;durP1;ratioP1;P1;durP2;ratioP2;P2;SDS_P1;SDS_P2;PMS_P1;PMS_P2;Temp;Humidity;BMP_temperature;BMP_pressure;BME280_temperature;BME280_humidity;BME280_pressure;Samples;Min_cycle;Max_cycle;Signal;HPM_P1;HPM_P2
2023/08/15 00:00:55;;;;;;;15.43;5.57;;;;;;;;;;5034934;28;20519;-69
2023/08/15 00:03:21;;;;;;;12.85;5.85;;;;;;;;;;5034101;28;20052;-70
2023/08/15 00:05:46;;;;;;;15.73;7.10;;;;;;;;;;5035141;28;20041;-70
2023/08/15 00:08:12;;;;;;;9.30;5.75;;;;;;;;;;5034411;28;20064;-69
2023/08/15 00:10:37;;;;;;;13.43;6.30;;;;;;;;;;5034872;28;20041;-72
2023/08/15 00:13:03;;;;;;;17.75;6.22;;;;;;;;;;5035093;28;20490;-69
2023/08/15 00:15:32;;;;;;;12.68;5.45;;;;;;;;;;5035957;28;20072;-69
2023/08/15 00:17:57;;;;;;;8.07;4.97;;;;;;;;;;5034232;28;20037;-70
2023/08/15 00:20:23;;;;;;;9.13;4.80;;;;;;;;;;5033979;28;20082;-70
2023/08/15 00:22:48;;;;;;;13.27;5.43;;;;;;;;;;5034672;28;20049;-69
2023/08/15 00:25:14;;;;;;;12.70;5.72;;;;;;;;;;5034524;28;20035;-70
2023/08/15 00:27:40;;;;;;;13.35;5.40;;;;;;;;;;5000833;28;20041;-69
2023/08/15 00:30:06;;;;;;;13.15;5.10;;;;;;;;;;5033815;28;20045;-69
2023/08/15 00:32:35;;;;;;;9.35;5.30;;;;;;;;;;5033555;28;20373;-70
2023/08/15 00:35:02;;;;;;;15.02;5.68;;;;;;;;;;5033608;28;20065;-69
2023/08/15 00:37:31;;;;;;;11.15;4.95;;;;;;;;;;5033964;28;20067;-70
2023/08/15 00:39:56;;;;;;;11.02;5.40;;;;;;;;;;5034264;28;20423;-70
2023/08/15 00:42:24;;;;;;;11.20;5.05;;;;;;;;;;5018607;28;20041;-70
2023/08/15 00:44:49;;;;;;;15.48;5.60;;;;;;;;;;5033779;28;20095;-70
2023/08/15 00:47:15;;;;;;;9.90;5.65;;;;;;;;;;5000701;28;20081;-70
2023/08/15 00:49:41;;;;;;;14.45;5.28;;;;;;;;;;5033461;28;20032;-69
2023/08/15 00:52:07;;;;;;;15.35;5.75;;;;;;;;;;5033149;28;20053;-70
2023/08/15 00:54:33;;;;;;;11.88;5.93;;;;;;;;;;5033837;28;20106;-70
2023/08/15 00:56:58;;;;;;;11.40;5.38;;;;;;;;;;5034318;28;20041;-70
2023/08/15 00:59:24;;;;;;;11.18;6.13;;;;;;;;;;5016765;28;20044;-70
2023/08/15 01:01:50;;;;;;;10.23;6.22;;;;;;;;;;5032952;28;20041;-69
2023/08/15 01:04:15;;;;;;;11.88;6.55;;;;;;;;;;5033049;28;20364;-69
2023/08/15 01:06:41;;;;;;;11.18;6.07;;;;;;;;;;5032583;28;20037;-69
2023/08/15 01:09:08;;;;;;;21.33;7.00;;;;;;;;;;5032175;28;20491;-69
2023/08/15 01:11:38;;;;;;;10.75;6.22;;;;;;;;;;5033095;28;20041;-69
2023/08/15 01:14:06;;;;;;;11.45;5.60;;;;;;;;;;5000195;28;20526;-69
2023/08/15 01:16:36;;;;;;;12.40;6.55;;;;;;;;;;5034011;28;20026;-69
2023/08/15 01:19:05;;;;;;;13.05;6.78;;;;;;;;;;5000007;28;20037;-69
2023/08/15 01:21:33;;;;;;;11.70;6.82;;;;;;;;;;5016020;28;20470;-69
2023/08/15 01:23:59;;;;;;;15.35;6.50;;;;;;;;;;5016191;28;20061;-70
2023/08/15 01:26:25;;;;;;;12.57;6.40;;;;;;;;;;5033409;28;20111;-69
2023/08/15 01:28:51;;;;;;;12.40;6.47;;;;;;;;;;5032586;28;20499;-69
2023/08/15 01:31:36;;;;;;;14.85;6.25;;;;;;;;;;5032593;28;20080;-70
2023/08/15 01:34:09;;;;;;;12.93;6.25;;;;;;;;;;5033784;28;20422;-70
2023/08/15 01:36:38;;;;;;;14.82;6.40;;;;;;;;;;5016022;28;20033;-69
2023/08/15 01:39:05;;;;;;;10.70;6.35;;;;;;;;;;5033668;28;20751;-70
2023/08/15 01:41:36;;;;;;;9.13;5.45;;;;;;;;;;5033269;28;20452;-69
2023/08/15 01:44:02;;;;;;;9.15;6.25;;;;;;;;;;5032359;28;20033;-71
2023/08/15 01:46:28;;;;;;;11.63;5.90;;;;;;;;;;5033429;28;20128;-70
2023/08/15 01:48:57;;;;;;;10.20;5.78;;;;;;;;;;5032335;28;20060;-70
2023/08/15 01:51:23;;;;;;;14.10;6.40;;;;;;;;;;5031926;28;20048;-69
2023/08/15 01:53:51;;;;;;;10.82;6.38;;;;;;;;;;5015524;28;20037;-69
2023/08/15 01:56:17;;;;;;;11.50;6.25;;;;;;;;;;5032997;28;20044;-70
2023/08/15 01:58:42;;;;;;;11.95;6.10;;;;;;;;;;5015686;28;20037;-70
2023/08/15 02:01:08;;;;;;;13.20;5.72;;;;;;;;;;5032255;28;20048;-69
2023/08/15 02:03:34;;;;;;;15.30;5.78;;;;;;;;;;5032279;28;20037;-70
2023/08/15 02:05:59;;;;;;;10.52;5.93;;;;;;;;;;5031812;28;20041;-70
2023/08/15 02:08:26;;;;;;;13.32;5.57;;;;;;;;;;5031361;28;20195;-69
2023/08/15 02:10:52;;;;;;;13.40;5.93;;;;;;;;;;5031583;28;20045;-69
2023/08/15 02:13:20;;;;;;;13.32;5.40;;;;;;;;;;5015565;28;20110;-69
2023/08/15 02:15:46;;;;;;;9.43;5.25;;;;;;;;;;5032520;28;20080;-69
2023/08/15 02:18:12;;;;;;;8.35;5.47;;;;;;;;;;5031813;28;20495;-70
2023/08/15 02:20:38;;;;;;;8.48;5.15;;;;;;;;;;5015726;28;20373;-69
2023/08/15 02:23:03;;;;;;;11.68;5.15;;;;;;;;;;5031711;28;20368;-69
2023/08/15 02:25:29;;;;;;;11.13;5.22;;;;;;;;;;5015720;28;20037;-69
2023/08/15 02:27:55;;;;;;;15.05;5.10;;;;;;;;;;5032605;28;20052;-70
2023/08/15 02:30:22;;;;;;;7.70;4.70;;;;;;;;;;5032608;28;20038;-70
2023/08/15 02:32:48;;;;;;;9.38;4.70;;;;;;;;;;5031726;28;20144;-70
2023/08/15 02:35:13;;;;;;;7.60;4.68;;;;;;;;;;5031673;28;20072;-69
2023/08/15 02:37:39;;;;;;;11.00;5.20;;;;;;;;;;5031753;28;20037;-70
2023/08/15 02:40:09;;;;;;;9.35;4.70;;;;;;;;;;5015637;28;20084;-69
2023/08/15 02:42:36;;;;;;;10.65;5.40;;;;;;;;;;5032343;28;20144;-69
2023/08/15 02:45:01;;;;;;;14.80;5.50;;;;;;;;;;5031520;28;20116;-69
2023/08/15 02:47:32;;;;;;;;;;;;;;;;;;5032029;28;20095;-69
2023/08/15 02:49:58;;;;;;;9.93;5.47;;;;;;;;;;5032061;28;19917;-69
2023/08/15 02:52:24;;;;;;;13.38;5.22;;;;;;;;;;5032031;28;20049;-69
2023/08/15 02:54:50;;;;;;;8.75;5.40;;;;;;;;;;5031811;28;20037;-70
2023/08/15 02:57:15;;;;;;;10.02;4.93;;;;;;;;;;5032150;28;20052;-69
2023/08/15 02:59:41;;;;;;;9.57;5.03;;;;;;;;;;5031478;28;20033;-69
2023/08/15 03:02:09;;;;;;;14.20;5.22;;;;;;;;;;5032261;28;20446;-69
2023/08/15 03:04:35;;;;;;;13.10;6.20;;;;;;;;;;5048109;28;20039;-70
2023/08/15 03:07:01;;;;;;;8.32;4.75;;;;;;;;;;5031935;28;20061;-69
2023/08/15 03:09:27;;;;;;;13.05;5.47;;;;;;;;;;5031796;28;20108;-70
2023/08/15 03:11:53;;;;;;;8.85;5.38;;;;;;;;;;5031021;28;20072;-69
2023/08/15 03:14:19;;;;;;;13.82;5.68;;;;;;;;;;5047642;28;20048;-70
2023/08/15 03:16:44;;;;;;;11.05;5.30;;;;;;;;;;5031272;28;20038;-69
2023/08/15 03:19:12;;;;;;;15.05;5.90;;;;;;;;;;5015567;28;20067;-69
2023/08/15 03:21:37;;;;;;;21.85;6.57;;;;;;;;;;5031253;28;20041;-69
2023/08/15 03:24:03;;;;;;;19.77;6.80;;;;;;;;;;5031041;28;20107;-69
2023/08/15 03:26:30;;;;;;;16.02;6.30;;;;;;;;;;5030690;28;20065;-70
2023/08/15 03:28:56;;;;;;;20.05;6.35;;;;;;;;;;5030842;28;20037;-69
2023/08/15 03:31:22;;;;;;;12.15;6.15;;;;;;;;;;5031501;28;20053;-69
2023/08/15 03:33:53;;;;;;;10.85;6.78;;;;;;;;;;5034466;28;20025;-70
2023/08/15 03:36:20;;;;;;;10.68;5.60;;;;;;;;;;5035423;28;20099;-70
2023/08/15 03:38:46;;;;;;;10.48;5.47;;;;;;;;;;5034636;28;20041;-69
2023/08/15 03:41:12;;;;;;;10.23;5.40;;;;;;;;;;5034706;28;20068;-69
2023/08/15 03:43:37;;;;;;;9.73;5.93;;;;;;;;;;5034339;28;20029;-69
2023/08/15 03:46:03;;;;;;;15.02;5.72;;;;;;;;;;5034295;28;20038;-70
2023/08/15 03:48:32;;;;;;;11.65;5.45;;;;;;;;;;5034483;28;20147;-69
2023/08/15 03:50:58;;;;;;;13.60;5.65;;;;;;;;;;5017867;28;20045;-69
2023/08/15 03:53:25;;;;;;;11.18;5.50;;;;;;;;;;5017739;28;20040;-69
2023/08/15 03:55:51;;;;;;;13.18;5.03;;;;;;;;;;5017823;28;20042;-69
2023/08/15 03:58:18;;;;;;;8.93;5.15;;;;;;;;;;5034264;28;20061;-69
2023/08/15 04:00:44;;;;;;;7.03;5.28;;;;;;;;;;5051313;28;20044;-70
2023/08/15 04:03:10;;;;;;;17.85;5.25;;;;;;;;;;5035339;28;20039;-69
2023/08/15 04:05:36;;;;;;;12.32;5.25;;;;;;;;;;5033927;28;20041;-69
2023/08/15 04:08:02;;;;;;;10.40;5.70;;;;;;;;;;5033631;28;20057;-69
2023/08/15 04:10:28;;;;;;;9.60;5.72;;;;;;;;;;5033926;28;20037;-69
2023/08/15 04:12:54;;;;;;;10.85;5.95;;;;;;;;;;5033823;28;20041;-69
2023/08/15 04:15:20;;;;;;;14.57;5.65;;;;;;;;;;5034506;28;20043;-70
2023/08/15 04:17:46;;;;;;;18.05;6.10;;;;;;;;;;5034109;28;20530;-69
2023/08/15 04:20:12;;;;;;;11.05;5.88;;;;;;;;;;5035041;28;20034;-70
2023/08/15 04:22:38;;;;;;;11.27;5.15;;;;;;;;;;5034618;28;20034;-69
2023/08/15 04:25:06;;;;;;;12.00;5.05;;;;;;;;;;5034454;28;20132;-69
2023/08/15 04:27:32;;;;;;;14.27;5.35;;;;;;;;;;5034292;28;20044;-69
2023/08/15 04:29:58;;;;;;;10.80;6.00;;;;;;;;;;5018664;28;20033;-69
2023/08/15 04:32:23;;;;;;;14.27;7.30;;;;;;;;;;5017574;28;20042;-69
2023/08/15 04:34:49;;;;;;;12.48;6.35;;;;;;;;;;5033452;28;20042;-69
2023/08/15 04:37:15;;;;;;;10.05;5.72;;;;;;;;;;5033754;28;20047;-69
2023/08/15 04:39:40;;;;;;;10.95;5.30;;;;;;;;;;5016986;28;20045;-69
2023/08/15 04:42:06;;;;;;;11.30;5.93;;;;;;;;;;5033464;28;20029;-71
2023/08/15 04:44:31;;;;;;;16.15;6.82;;;;;;;;;;5033380;28;20048;-71
2023/08/15 04:46:57;;;;;;;9.68;5.35;;;;;;;;;;5035167;28;20091;-69
2023/08/15 04:49:23;;;;;;;15.48;5.97;;;;;;;;;;5001326;28;20048;-69
2023/08/15 04:51:48;;;;;;;10.38;5.63;;;;;;;;;;5033134;28;20392;-69
2023/08/15 04:54:14;;;;;;;11.68;5.82;;;;;;;;;;5016965;28;20041;-69
2023/08/15 04:56:40;;;;;;;10.27;5.55;;;;;;;;;;5034164;28;20040;-69
2023/08/15 04:59:06;;;;;;;14.80;6.40;;;;;;;;;;5033199;28;20099;-70
2023/08/15 05:01:31;;;;;;;13.38;5.90;;;;;;;;;;5049957;28;20042;-69
2023/08/15 05:03:57;;;;;;;10.02;5.47;;;;;;;;;;5033504;28;20041;-70
2023/08/15 05:06:23;;;;;;;16.70;6.00;;;;;;;;;;5049708;28;20041;-69
2023/08/15 05:08:48;;;;;;;9.68;5.43;;;;;;;;;;5016789;28;20080;-69
2023/08/15 05:11:15;;;;;;;13.10;5.82;;;;;;;;;;5033136;28;20049;-69
2023/08/15 05:13:40;;;;;;;9.45;5.57;;;;;;;;;;5016596;28;20476;-69
2023/08/15 05:16:07;;;;;;;12.05;5.72;;;;;;;;;;5033023;28;20044;-70
2023/08/15 05:18:33;;;;;;;15.25;5.97;;;;;;;;;;5032630;28;20041;-69
2023/08/15 05:20:58;;;;;;;10.90;5.55;;;;;;;;;;5032374;28;20053;-69
2023/08/15 05:23:24;;;;;;;15.52;5.88;;;;;;;;;;5032244;28;20132;-69
2023/08/15 05:25:51;;;;;;;12.88;5.43;;;;;;;;;;5032481;28;20068;-69
2023/08/15 05:28:16;;;;;;;19.77;6.10;;;;;;;;;;5016180;28;20464;-69
2023/08/15 05:30:43;;;;;;;16.55;5.32;;;;;;;;;;5033024;28;20045;-70
2023/08/15 05:33:09;;;;;;;11.63;5.53;;;;;;;;;;4999327;28;20091;-70
2023/08/15 05:35:34;;;;;;;13.48;5.70;;;;;;;;;;5032400;28;20037;-69
2023/08/15 05:38:01;;;;;;;19.92;6.32;;;;;;;;;;5015714;28;20127;-69
2023/08/15 05:40:27;;;;;;;13.15;5.00;;;;;;;;;;5032191;28;20140;-69
2023/08/15 05:42:53;;;;;;;13.85;5.55;;;;;;;;;;4999506;28;20095;-69
2023/08/15 05:45:19;;;;;;;16.92;5.10;;;;;;;;;;5015958;28;20121;-69
2023/08/15 05:47:44;;;;;;;12.57;4.50;;;;;;;;;;5033145;28;20056;-70
2023/08/15 05:50:10;;;;;;;9.60;4.32;;;;;;;;;;4999114;28;20347;-70
2023/08/15 05:52:37;;;;;;;13.77;4.60;;;;;;;;;;5015393;28;20041;-69
2023/08/15 05:55:03;;;;;;;18.92;4.60;;;;;;;;;;5031449;28;20033;-71
2023/08/15 05:57:30;;;;;;;10.18;3.90;;;;;;;;;;5031833;28;20033;-69
2023/08/15 05:59:56;;;;;;;10.57;4.50;;;;;;;;;;5031699;28;20388;-70
2023/08/15 06:02:22;;;;;;;13.10;3.90;;;;;;;;;;5032787;28;20036;-69
2023/08/15 06:04:47;;;;;;;11.15;4.18;;;;;;;;;;5031788;28;20037;-70
2023/08/15 06:07:13;;;;;;;11.75;4.13;;;;;;;;;;5015224;28;20072;-69
2023/08/15 06:09:39;;;;;;;9.07;3.83;;;;;;;;;;5032532;28;20044;-69
2023/08/15 06:12:05;;;;;;;9.02;3.60;;;;;;;;;;5031450;28;20045;-70
2023/08/15 06:14:32;;;;;;;11.02;4.55;;;;;;;;;;5015091;28;20061;-69
2023/08/15 06:16:57;;;;;;;11.05;3.70;;;;;;;;;;5032345;28;20565;-70
2023/08/15 06:19:23;;;;;;;8.20;3.05;;;;;;;;;;5032438;28;20112;-70
2023/08/15 06:21:49;;;;;;;5.63;3.33;;;;;;;;;;5032501;28;20471;-70
2023/08/15 06:24:15;;;;;;;17.70;3.50;;;;;;;;;;5032308;28;20112;-70
2023/08/15 06:26:40;;;;;;;7.47;3.15;;;;;;;;;;5031336;28;20049;-70
2023/08/15 06:29:06;;;;;;;17.40;3.22;;;;;;;;;;5031148;28;20025;-70
2023/08/15 06:31:32;;;;;;;17.95;3.90;;;;;;;;;;5032423;28;20118;-70
2023/08/15 06:33:58;;;;;;;13.13;3.50;;;;;;;;;;5014647;28;20033;-70
2023/08/15 06:36:24;;;;;;;6.82;3.00;;;;;;;;;;5032287;28;20033;-69
2023/08/15 06:38:50;;;;;;;12.35;2.85;;;;;;;;;;5032507;28;20052;-70
2023/08/15 06:41:16;;;;;;;6.70;2.85;;;;;;;;;;5030998;28;20400;-70
2023/08/15 06:43:44;;;;;;;9.80;2.95;;;;;;;;;;5031829;28;20041;-70
2023/08/15 06:46:10;;;;;;;6.80;2.60;;;;;;;;;;5014624;28;20056;-70
2023/08/15 06:48:36;;;;;;;5.53;2.60;;;;;;;;;;5030919;28;20121;-70
2023/08/15 06:51:03;;;;;;;6.20;2.60;;;;;;;;;;5014498;28;20052;-70
2023/08/15 06:53:30;;;;;;;8.93;2.85;;;;;;;;;;5031072;28;20128;-70
2023/08/15 06:55:56;;;;;;;8.50;2.47;;;;;;;;;;5031039;28;20372;-70
2023/08/15 06:58:24;;;;;;;6.22;2.45;;;;;;;;;;5031180;28;20033;-70
2023/08/15 07:00:49;;;;;;;7.93;2.90;;;;;;;;;;5031196;28;20065;-70
2023/08/15 07:03:16;;;;;;;6.95;2.60;;;;;;;;;;5031027;28;20158;-70
2023/08/15 07:05:45;;;;;;;15.20;2.90;;;;;;;;;;5031732;28;20088;-70
2023/08/15 07:08:13;;;;;;;4.78;2.40;;;;;;;;;;5035746;28;20130;-70
2023/08/15 07:10:39;;;;;;;4.15;2.50;;;;;;;;;;5035925;28;20419;-70
2023/08/15 07:13:05;;;;;;;5.43;2.40;;;;;;;;;;5019311;28;20371;-70
2023/08/15 07:15:31;;;;;;;5.45;2.30;;;;;;;;;;5018420;28;20042;-70
2023/08/15 07:17:57;;;;;;;4.68;2.42;;;;;;;;;;5035134;28;20472;-70
2023/08/15 07:20:23;;;;;;;7.07;2.55;;;;;;;;;;5035085;28;20033;-70
2023/08/15 07:22:49;;;;;;;6.03;2.42;;;;;;;;;;5018214;28;20490;-70
2023/08/15 07:25:15;;;;;;;12.50;2.80;;;;;;;;;;5001666;28;20034;-70
2023/08/15 07:27:41;;;;;;;8.32;2.60;;;;;;;;;;5035526;28;20029;-70
2023/08/15 07:30:07;;;;;;;9.00;2.42;;;;;;;;;;5034945;28;20079;-71
2023/08/15 07:32:36;;;;;;;10.88;2.22;;;;;;;;;;5035551;28;20106;-71
2023/08/15 07:35:05;;;;;;;2.97;1.75;;;;;;;;;;5035440;28;20041;-71
2023/08/15 07:37:31;;;;;;;5.05;2.08;;;;;;;;;;5001616;28;20052;-71
2023/08/15 07:39:58;;;;;;;5.85;1.90;;;;;;;;;;5034412;28;20037;-71
2023/08/15 07:42:26;;;;;;;7.07;2.47;;;;;;;;;;5035348;28;20041;-71
2023/08/15 07:44:52;;;;;;;4.88;2.03;;;;;;;;;;5034968;28;20487;-71
2023/08/15 07:47:17;;;;;;;7.32;2.10;;;;;;;;;;5050828;28;20042;-71
2023/08/15 07:49:44;;;;;;;5.47;2.20;;;;;;;;;;5017641;28;20128;-70
2023/08/15 07:52:10;;;;;;;6.75;2.20;;;;;;;;;;5034110;28;20045;-70
2023/08/15 07:54:36;;;;;;;9.52;2.08;;;;;;;;;;5033932;28;20497;-70
2023/08/15 07:57:02;;;;;;;2.83;1.80;;;;;;;;;;5017400;28;20057;-71
2023/08/15 07:59:27;;;;;;;4.93;1.80;;;;;;;;;;5051027;28;20132;-71
2023/08/15 08:01:53;;;;;;;5.53;1.80;;;;;;;;;;5017499;28;20132;-71
2023/08/15 08:04:19;;;;;;;3.42;1.80;;;;;;;;;;5033970;28;20124;-71
2023/08/15 08:06:47;;;;;;;3.45;1.70;;;;;;;;;;5033562;28;20029;-71
2023/08/15 08:09:13;;;;;;;6.63;1.80;;;;;;;;;;5016449;28;20554;-71
2023/08/15 08:11:39;;;;;;;4.45;1.52;;;;;;;;;;5017440;28;20132;-73
2023/08/15 08:14:04;;;;;;;6.45;1.80;;;;;;;;;;5033840;28;20535;-71
2023/08/15 08:16:30;;;;;;;7.78;1.80;;;;;;;;;;5034789;28;20083;-71
2023/08/15 08:18:56;;;;;;;4.28;2.00;;;;;;;;;;5017774;28;20065;-71
2023/08/15 08:21:22;;;;;;;4.50;1.55;;;;;;;;;;5032379;28;20124;-71
2023/08/15 08:23:47;;;;;;;2.08;1.52;;;;;;;;;;5033644;28;20128;-71
2023/08/15 08:26:14;;;;;;;2.88;1.65;;;;;;;;;;5033615;28;20069;-71
2023/08/15 08:28:42;;;;;;;2.55;1.55;;;;;;;;;;5032582;28;20040;-71
2023/08/15 08:31:07;;;;;;;5.13;1.80;;;;;;;;;;5033324;28;20034;-71
2023/08/15 08:33:33;;;;;;;6.10;1.75;;;;;;;;;;5016941;28;20456;-71
2023/08/15 08:35:59;;;;;;;2.92;1.55;;;;;;;;;;5033600;28;20364;-71
2023/08/15 08:38:25;;;;;;;4.95;1.88;;;;;;;;;;5033307;28;20132;-71
2023/08/15 08:40:53;;;;;;;4.13;1.52;;;;;;;;;;5017218;28;20711;-71
2023/08/15 08:43:19;;;;;;;4.60;1.38;;;;;;;;;;5034835;28;20483;-71
2023/08/15 08:45:47;;;;;;;4.70;1.60;;;;;;;;;;5036094;28;20041;-70
2023/08/15 08:48:15;;;;;;;4.40;1.63;;;;;;;;;;5034581;28;20044;-70
2023/08/15 08:50:41;;;;;;;4.82;1.77;;;;;;;;;;5034443;28;20472;-71
2023/08/15 08:53:07;;;;;;;4.45;1.70;;;;;;;;;;5033181;28;20065;-70
2023/08/15 08:55:33;;;;;;;5.38;1.50;;;;;;;;;;5033155;28;20065;-70
2023/08/15 08:58:00;;;;;;;4.10;1.75;;;;;;;;;;5016943;28;20041;-70
2023/08/15 09:00:29;;;;;;;3.50;1.60;;;;;;;;;;5032747;28;20128;-70
2023/08/15 09:02:56;;;;;;;7.15;1.60;;;;;;;;;;5033726;28;20377;-70
2023/08/15 09:05:22;;;;;;;3.25;1.63;;;;;;;;;;5033794;28;20047;-70
2023/08/15 09:07:48;;;;;;;4.40;1.70;;;;;;;;;;5032725;28;20119;-70
2023/08/15 09:10:14;;;;;;;5.18;1.85;;;;;;;;;;5032985;28;20111;-70
2023/08/15 09:12:40;;;;;;;6.18;2.08;;;;;;;;;;5034562;28;20436;-70
2023/08/15 09:15:08;;;;;;;4.45;2.08;;;;;;;;;;5036492;28;20063;-70
2023/08/15 09:17:35;;;;;;;5.37;1.70;;;;;;;;;;5035416;28;20033;-70
2023/08/15 09:20:08;;;;;;;4.65;1.75;;;;;;;;;;5035469;28;20029;-69
2023/08/15 09:22:34;;;;;;;3.88;2.10;;;;;;;;;;5033781;28;20059;-70
2023/08/15 09:25:00;;;;;;;3.72;1.70;;;;;;;;;;5033846;28;20029;-70
2023/08/15 09:27:26;;;;;;;5.63;2.25;;;;;;;;;;5033306;28;20133;-70
2023/08/15 09:29:51;;;;;;;8.13;1.98;;;;;;;;;;5032661;28;20439;-69
2023/08/15 09:32:17;;;;;;;5.47;2.00;;;;;;;;;;5051059;28;20139;-70
2023/08/15 09:34:44;;;;;;;3.63;1.98;;;;;;;;;;5034582;28;20048;-69
2023/08/15 09:37:09;;;;;;;5.47;1.98;;;;;;;;;;5034789;28;20399;-69
2023/08/15 09:39:35;;;;;;;8.98;2.20;;;;;;;;;;5017979;28;20029;-69
2023/08/15 09:42:01;;;;;;;4.55;2.47;;;;;;;;;;5034625;28;20106;-69
2023/08/15 09:44:30;;;;;;;9.60;2.45;;;;;;;;;;5034631;28;20467;-69
2023/08/15 09:46:56;;;;;;;4.70;2.10;;;;;;;;;;5051434;28;20049;-69
2023/08/15 09:49:22;;;;;;;8.65;2.55;;;;;;;;;;5051489;28;20136;-69
2023/08/15 09:51:49;;;;;;;7.35;2.40;;;;;;;;;;5034619;28;20045;-70
2023/08/15 09:54:16;;;;;;;12.13;2.60;;;;;;;;;;5018080;28;20029;-69
2023/08/15 09:56:42;;;;;;;9.07;2.40;;;;;;;;;;5050770;28;20556;-70
2023/08/15 09:59:08;;;;;;;7.22;2.60;;;;;;;;;;5017975;28;20120;-69
2023/08/15 10:01:38;;;;;;;4.25;2.72;;;;;;;;;;5050826;28;20114;-69
2023/08/15 10:04:07;;;;;;;8.32;2.85;;;;;;;;;;5031652;28;20045;-70
2023/08/15 10:06:33;;;;;;;4.70;2.33;;;;;;;;;;5015221;28;20203;-70
2023/08/15 10:09:00;;;;;;;4.78;2.20;;;;;;;;;;5032437;28;20120;-70
2023/08/15 10:11:27;;;;;;;3.90;1.92;;;;;;;;;;5032331;28;20368;-71
2023/08/15 10:13:53;;;;;;;5.03;2.47;;;;;;;;;;5031371;28;20459;-70
2023/08/15 10:16:19;;;;;;;5.72;1.73;;;;;;;;;;5031321;28;20045;-70
2023/08/15 10:18:51;;;;;;;6.82;1.88;;;;;;;;;;5032151;28;20044;-70
2023/08/15 10:21:17;;;;;;;3.47;1.60;;;;;;;;;;5032206;28;20061;-70
2023/08/15 10:23:43;;;;;;;5.18;1.80;;;;;;;;;;5032263;28;20041;-70
2023/08/15 10:26:10;;;;;;;5.85;1.77;;;;;;;;;;5032288;28;20076;-70
2023/08/15 10:28:36;;;;;;;4.10;1.52;;;;;;;;;;5015124;28;20037;-70
2023/08/15 10:31:02;;;;;;;6.07;1.63;;;;;;;;;;5046697;28;20061;-70
2023/08/15 10:33:29;;;;;;;4.82;1.63;;;;;;;;;;5030147;28;20048;-70
2023/08/15 10:35:54;;;;;;;4.43;1.90;;;;;;;;;;5029986;28;20132;-70
2023/08/15 10:38:23;;;;;;;6.10;1.83;;;;;;;;;;5029977;28;20045;-70
2023/08/15 10:40:50;;;;;;;7.00;2.08;;;;;;;;;;5012603;28;20072;-70
2023/08/15 10:43:16;;;;;;;6.15;2.72;;;;;;;;;;5013498;28;20057;-70
2023/08/15 10:45:43;;;;;;;5.35;1.75;;;;;;;;;;5030070;28;20033;-70
2023/08/15 10:48:10;;;;;;;4.40;1.90;;;;;;;;;;5013480;28;20095;-69
2023/08/15 10:50:36;;;;;;;3.90;1.88;;;;;;;;;;5013757;28;20080;-70
2023/08/15 10:53:05;;;;;;;4.00;2.05;;;;;;;;;;5013295;28;20068;-69
2023/08/15 10:55:36;;;;;;;6.93;2.20;;;;;;;;;;5013433;28;20076;-69
2023/08/15 10:58:11;;;;;;;4.90;2.42;;;;;;;;;;5029827;28;20045;-69
2023/08/15 11:00:36;;;;;;;6.65;2.30;;;;;;;;;;5013589;28;20037;-69
2023/08/15 11:03:03;;;;;;;8.93;2.63;;;;;;;;;;5013273;28;20048;-69
2023/08/15 11:05:30;;;;;;;7.35;2.30;;;;;;;;;;5013306;28;20633;-69
2023/08/15 11:08:28;;;;;;;8.57;2.50;;;;;;;;;;5013496;28;20518;-69
2023/08/15 11:10:55;;;;;;;4.57;2.30;;;;;;;;;;5013199;28;20057;-69
2023/08/15 11:13:21;;;;;;;7.60;2.60;;;;;;;;;;5013244;28;20115;-69
2023/08/15 11:15:47;;;;;;;4.10;1.95;;;;;;;;;;5013338;28;20036;-69
2023/08/15 11:18:23;;;;;;;10.77;2.40;;;;;;;;;;5029882;28;20127;-69
2023/08/15 11:20:51;;;;;;;6.78;2.15;;;;;;;;;;5030116;28;20713;-70
2023/08/15 11:23:17;;;;;;;4.47;2.05;;;;;;;;;;5031658;28;20084;-70
2023/08/15 11:25:43;;;;;;;6.00;1.88;;;;;;;;;;5031385;28;20072;-69
2023/08/15 11:28:10;;;;;;;8.13;1.83;;;;;;;;;;5031687;28;20052;-70
2023/08/15 11:30:37;;;;;;;9.02;1.88;;;;;;;;;;5031456;28;20033;-69
2023/08/15 11:33:05;;;;;;;6.88;2.20;;;;;;;;;;5014575;28;20048;-69
2023/08/15 11:35:31;;;;;;;7.70;2.10;;;;;;;;;;5014479;28;20037;-69
2023/08/15 11:37:59;;;;;;;9.45;2.28;;;;;;;;;;5046613;28;20106;-69
2023/08/15 11:40:25;;;;;;;4.80;1.90;;;;;;;;;;5030791;28;20037;-69
2023/08/15 11:42:50;;;;;;;3.90;1.92;;;;;;;;;;5014064;28;20454;-69
2023/08/15 11:45:16;;;;;;;4.97;1.88;;;;;;;;;;5031434;28;20033;-69
2023/08/15 11:47:57;;;;;;;7.28;2.10;;;;;;;;;;5030436;28;20079;-69
2023/08/15 11:50:24;;;;;;;6.20;2.38;;;;;;;;;;5013796;28;20036;-69
2023/08/15 11:52:50;;;;;;;6.35;1.98;;;;;;;;;;5032203;28;20041;-69
2023/08/15 11:55:18;;;;;;;4.68;1.90;;;;;;;;;;5034993;28;20052;-69
2023/08/15 11:57:44;;;;;;;9.38;2.10;;;;;;;;;;5034759;28;20068;-69
2023/08/15 12:00:11;;;;;;;3.47;1.67;;;;;;;;;;5035327;28;20440;-69
2023/08/15 12:03:03;;;;;;;6.85;1.80;;;;;;;;;;5034888;28;20045;-69
2023/08/15 12:05:29;;;;;;;7.78;2.03;;;;;;;;;;5032726;28;20069;-69
2023/08/15 12:07:57;;;;;;;5.63;2.05;;;;;;;;;;5034809;28;20061;-69
2023/08/15 12:10:24;;;;;;;5.50;1.75;;;;;;;;;;5034831;28;20044;-69
2023/08/15 12:12:51;;;;;;;6.53;1.92;;;;;;;;;;5017350;28;20049;-69
2023/08/15 12:15:17;;;;;;;6.55;2.10;;;;;;;;;;5033694;28;20132;-69
2023/08/15 12:17:42;;;;;;;5.32;2.00;;;;;;;;;;5017612;28;20421;-69
2023/08/15 12:20:11;;;;;;;4.03;2.03;;;;;;;;;;5001291;28;20041;-69
2023/08/15 12:22:39;;;;;;;6.82;2.20;;;;;;;;;;5034553;28;20369;-69
2023/08/15 12:25:05;;;;;;;5.55;2.00;;;;;;;;;;5034473;28;20037;-70
2023/08/15 12:27:36;;;;;;;3.72;1.67;;;;;;;;;;5034312;28;20025;-69
2023/08/15 12:30:03;;;;;;;;;;;;;;;;;;5034031;28;20071;-70
2023/08/15 12:32:29;;;;;;;5.28;1.95;;;;;;;;;;5034330;28;19960;-69
2023/08/15 12:34:54;;;;;;;6.07;1.98;;;;;;;;;;5017304;28;20048;-69
2023/08/15 12:37:20;;;;;;;4.68;1.88;;;;;;;;;;5033899;28;20036;-69
2023/08/15 12:39:46;;;;;;;6.10;2.13;;;;;;;;;;5034507;28;20044;-69
2023/08/15 12:42:12;;;;;;;6.70;2.10;;;;;;;;;;5033365;28;20134;-69
2023/08/15 12:44:37;;;;;;;4.45;1.70;;;;;;;;;;5034128;28;20480;-69
2023/08/15 12:47:03;;;;;;;5.32;1.83;;;;;;;;;;5034291;28;20045;-69
2023/08/15 12:49:29;;;;;;;5.32;1.98;;;;;;;;;;5000083;28;20041;-69
2023/08/15 12:51:54;;;;;;;3.47;1.90;;;;;;;;;;5033909;28;20029;-69
2023/08/15 12:54:20;;;;;;;3.20;1.50;;;;;;;;;;5000302;28;20038;-69
2023/08/15 12:56:46;;;;;;;5.10;1.50;;;;;;;;;;5034756;28;20029;-69
2023/08/15 12:59:12;;;;;;;2.28;1.30;;;;;;;;;;5035635;28;20044;-69
2023/08/15 13:01:38;;;;;;;5.95;1.70;;;;;;;;;;5035143;28;20398;-69
2023/08/15 13:04:04;;;;;;;8.38;1.58;;;;;;;;;;5032038;28;20391;-69
2023/08/15 13:06:29;;;;;;;4.85;1.70;;;;;;;;;;5033806;28;20038;-69
2023/08/15 13:08:55;;;;;;;4.93;1.42;;;;;;;;;;5016473;28;20472;-69
2023/08/15 13:11:21;;;;;;;3.90;1.63;;;;;;;;;;5033814;28;20463;-69
2023/08/15 13:13:48;;;;;;;5.85;1.92;;;;;;;;;;5032727;28;20040;-69
2023/08/15 13:16:13;;;;;;;4.28;1.40;;;;;;;;;;5016520;28;20361;-69
2023/08/15 13:18:39;;;;;;;6.25;1.58;;;;;;;;;;5032668;28;20052;-69
2023/08/15 13:21:06;;;;;;;5.25;1.58;;;;;;;;;;4999910;28;20041;-69
2023/08/15 13:23:31;;;;;;;4.57;1.70;;;;;;;;;;4999671;28;20129;-69
2023/08/15 13:25:58;;;;;;;4.47;1.52;;;;;;;;;;5016334;28;20041;-69
2023/08/15 13:28:24;;;;;;;6.72;1.70;;;;;;;;;;5033606;28;20112;-69
2023/08/15 13:30:51;;;;;;;8.77;2.25;;;;;;;;;;5032510;28;20136;-69
2023/08/15 13:33:16;;;;;;;6.70;1.77;;;;;;;;;;5016645;28;20464;-70
2023/08/15 13:35:42;;;;;;;4.35;1.63;;;;;;;;;;5033091;28;20068;-69
2023/08/15 13:38:07;;;;;;;4.70;1.85;;;;;;;;;;5033731;28;20044;-69
2023/08/15 13:40:34;;;;;;;2.85;1.60;;;;;;;;;;4999961;28;20044;-69
2023/08/15 13:42:59;;;;;;;6.32;1.70;;;;;;;;;;5000281;28;20041;-69
2023/08/15 13:45:25;;;;;;;3.97;1.63;;;;;;;;;;5032923;28;20556;-69
2023/08/15 13:47:51;;;;;;;9.82;1.85;;;;;;;;;;5033072;28;20068;-69
2023/08/15 13:50:17;;;;;;;6.82;1.80;;;;;;;;;;5032569;28;20072;-69
2023/08/15 13:52:43;;;;;;;4.57;1.50;;;;;;;;;;5031766;28;20135;-69
2023/08/15 13:55:09;;;;;;;6.88;1.50;;;;;;;;;;5032127;28;20507;-69
2023/08/15 13:57:35;;;;;;;9.13;1.90;;;;;;;;;;5050891;28;20041;-69
2023/08/15 14:00:01;;;;;;;3.58;1.60;;;;;;;;;;5034589;28;20122;-69
2023/08/15 14:02:30;;;;;;;4.97;1.90;;;;;;;;;;5050740;28;20088;-69
2023/08/15 14:04:55;;;;;;;4.72;2.13;;;;;;;;;;5050772;28;20060;-69
2023/08/15 14:07:23;;;;;;;8.73;1.70;;;;;;;;;;5033949;28;20069;-68
2023/08/15 14:09:48;;;;;;;6.68;1.98;;;;;;;;;;5034238;28;20056;-69
2023/08/15 14:12:14;;;;;;;4.07;1.48;;;;;;;;;;5050526;28;20051;-69
2023/08/15 14:14:40;;;;;;;6.50;1.70;;;;;;;;;;5050503;28;20044;-69
2023/08/15 14:17:05;;;;;;;4.72;1.50;;;;;;;;;;5033633;28;20048;-69
2023/08/15 14:19:31;;;;;;;6.25;1.70;;;;;;;;;;5033751;28;20040;-69
2023/08/15 14:21:56;;;;;;;5.35;1.67;;;;;;;;;;5033688;28;20071;-69
2023/08/15 14:24:22;;;;;;;5.32;1.50;;;;;;;;;;5017468;28;20357;-69
2023/08/15 14:26:49;;;;;;;5.78;1.60;;;;;;;;;;5034020;28;20040;-69
2023/08/15 14:29:15;;;;;;;2.70;1.60;;;;;;;;;;5050294;28;20063;-69
2023/08/15 14:31:40;;;;;;;3.95;1.50;;;;;;;;;;5033582;28;20227;-69
2023/08/15 14:34:08;;;;;;;7.80;1.65;;;;;;;;;;5031328;28;20180;-69